Time;durP1;ratioP1;P1;durP2;ratioP2;P2;SDS_P1;SDS_P2;PMS_P1;PMS_P2;Temp;Humidity;BMP_temperature;BMP_pressure;BME280_temperature;BME280_humidity;BME280_pressure;Samples;Min_cycle;Max_cycle;Signal;HPM_P1;HPM_P2
2021/07/29 00:01:14;;;;;;;;;;;;;;;14.21;83.30;99030.44;5033552;28;19929;-61
2021/07/29 00:03:39;;;;;;;;;;;;;;;14.19;83.20;99019.09;5033725;28;20272;-61
2021/07/29 00:06:04;;;;;;;;;;;;;;;14.20;82.96;99018.84;5033315;28;19921;-61
2021/07/29 00:08:30;;;;;;;;;;;;;;;14.23;82.64;99017.50;5033597;28;19952;-61
2021/07/29 00:10:55;;;;;;;;;;;;;;;14.28;82.70;99017.50;5032700;28;19921;-61
2021/07/29 00:13:20;;;;;;;;;;;;;;;14.36;82.37;99014.25;5012667;28;19925;-61
2021/07/29 00:15:46;;;;;;;;;;;;;;;14.46;81.81;99014.22;5019738;28;19971;-62
2021/07/29 00:20:39;;;;;;;;;;;;;;;14.58;81.08;99021.25;5028310;28;19922;-61
2021/07/29 00:23:05;;;;;;;;;;;;;;;14.72;80.41;99019.56;5013719;28;19917;-61
2021/07/29 00:25:30;;;;;;;;;;;;;;;14.84;79.83;99014.66;5017511;28;20269;-61
2021/07/29 00:27:56;;;;;;;;;;;;;;;14.85;79.70;99013.59;5019542;28;19941;-61
2021/07/29 00:30:23;;;;;;;;;;;;;;;14.96;79.00;99005.47;5013285;28;19922;-62
2021/07/29 00:32:48;;;;;;;;;;;;;;;14.87;79.78;99003.31;5013652;28;19917;-62
2021/07/29 00:35:14;;;;;;;;;;;;;;;14.89;79.49;98994.97;5012009;28;19917;-61
2021/07/29 00:37:40;;;;;;;;;;;;;;;14.93;79.13;99000.63;5030756;28;19976;-61
2021/07/29 00:40:05;;;;;;;;;;;;;;;14.88;78.95;98987.97;5033081;28;19952;-61
2021/07/29 00:42:30;;;;;;;;;;;;;;;14.87;79.46;98989.03;5033120;28;19913;-61
2021/07/29 00:44:56;;;;;;;;;;;;;;;14.82;79.54;98992.53;5033407;28;19917;-62
2021/07/29 00:47:21;;;;;;;;;;;;;;;14.73;80.29;98991.53;5032766;28;20431;-61
2021/07/29 00:49:47;;;;;;;;;;;;;;;14.72;80.31;98983.69;5032098;28;19917;-61
2021/07/29 00:52:15;;;;;;;;;;;;;;;14.74;79.98;98987.72;5032878;28;20326;-61
2021/07/29 00:54:41;;;;;;;;;;;;;;;14.70;80.20;98975.06;5033103;28;20347;-61
2021/07/29 00:57:06;;;;;;;;;;;;;;;14.74;80.38;98976.94;5032734;28;20015;-61
2021/07/29 00:59:31;;;;;;;;;;;;;;;14.77;80.02;98981.78;5033268;28;20012;-61
2021/07/29 01:01:57;;;;;;;;;;;;;;;14.86;79.29;98985.53;5032682;28;19927;-61
2021/07/29 01:04:22;;;;;;;;;;;;;;;14.72;79.83;98978.31;5032860;28;19924;-61
2021/07/29 01:06:47;;;;;;;;;;;;;;;14.67;80.59;98981.81;5032043;28;20359;-62
2021/07/29 01:09:12;;;;;;;;;;;;;;;14.56;81.15;98991.84;5032953;28;19917;-61
2021/07/29 01:11:38;;;;;;;;;;;;;;;14.59;80.92;98979.69;5032314;28;19921;-62
2021/07/29 01:14:03;;;;;;;;;;;;;;;14.56;81.50;98991.84;5032884;28;20004;-61
2021/07/29 01:16:29;;;;;;;;;;;;;;;14.59;82.39;98998.56;5032796;28;19926;-61
2021/07/29 01:18:55;;;;;;;;;;;;;;;14.58;81.29;99002.38;5032827;28;20263;-61
2021/07/29 01:21:20;;;;;;;;;;;;;;;14.60;81.21;98994.78;5032235;28;19921;-62
2021/07/29 01:23:45;;;;;;;;;;;;;;;14.59;81.38;98999.38;5031377;28;20279;-61
2021/07/29 01:26:10;;;;;;;;;;;;;;;14.59;81.33;98995.88;5030650;28;19921;-61
2021/07/29 01:28:36;;;;;;;;;;;;;;;14.59;81.03;98995.88;5032750;28;19924;-61
2021/07/29 01:31:01;;;;;;;;;;;;;;;14.57;80.60;99000.72;5027794;28;19929;-61
2021/07/29 01:33:26;;;;;;;;;;;;;;;14.55;80.34;98997.50;5012797;28;19921;-61
2021/07/29 01:35:51;;;;;;;;;;;;;;;14.46;80.95;98991.84;5019187;28;20000;-61
2021/07/29 01:38:17;;;;;;;;;;;;;;;14.41;81.26;98989.97;5032755;28;20260;-61
2021/07/29 01:40:42;;;;;;;;;;;;;;;14.34;80.95;98989.44;5028054;28;19999;-61
2021/07/29 01:43:07;;;;;;;;;;;;;;;14.34;80.70;98994.81;5016542;28;19922;-61
2021/07/29 01:45:32;;;;;;;;;;;;;;;14.33;80.44;98993.22;5020573;28;19921;-62
2021/07/29 01:47:58;;;;;;;;;;;;;;;14.30;81.03;98991.03;5036309;28;20326;-61
2021/07/29 01:50:23;;;;;;;;;;;;;;;14.18;81.27;98995.94;5032755;28;19921;-61
2021/07/29 01:52:48;;;;;;;;;;;;;;;14.01;81.95;98988.94;5016843;28;20082;-61
2021/07/29 01:55:13;;;;;;;;;;;;;;;14.09;81.47;98986.78;5017794;28;19924;-61
2021/07/29 01:57:39;;;;;;;;;;;;;;;14.03;81.92;98986.78;5036274;28;19917;-61
2021/07/29 02:00:04;;;;;;;;;;;;;;;13.94;82.15;98980.31;5035343;28;19970;-61
2021/07/29 02:02:29;;;;;;;;;;;;;;;14.02;81.84;98974.38;5016034;28;19921;-61
2021/07/29 02:04:55;;;;;;;;;;;;;;;14.05;81.56;98980.31;5015037;28;19924;-61
2021/07/29 02:07:20;;;;;;;;;;;;;;;14.09;81.42;98971.41;5034760;28;19944;-61
2021/07/29 02:09:45;;;;;;;;;;;;;;;14.06;81.49;98976.56;5036197;28;20371;-61
2021/07/29 02:12:10;;;;;;;;;;;;;;;14.20;80.96;98969.50;5017641;28;19921;-61
2021/07/29 02:14:36;;;;;;;;;;;;;;;14.19;80.72;98976.78;5016127;28;19964;-62
2021/07/29 02:17:01;;;;;;;;;;;;;;;14.17;80.65;98976.25;5032206;28;19922;-62
2021/07/29 02:19:26;;;;;;;;;;;;;;;14.18;80.47;98971.69;5035801;28;19947;-61
2021/07/29 02:21:52;;;;;;;;;;;;;;;14.20;80.46;98969.50;5035271;28;19925;-61
2021/07/29 02:24:17;;;;;;;;;;;;;;;14.24;80.41;98971.38;5035599;28;20016;-60
2021/07/29 02:26:42;;;;;;;;;;;;;;;14.28;80.24;98966.28;5035212;28;19927;-61
2021/07/29 02:29:07;;;;;;;;;;;;;;;14.11;81.02;98976.53;5035539;28;19917;-61
2021/07/29 02:31:33;;;;;;;;;;;;;;;14.05;81.28;98975.72;5035223;28;19925;-61
2021/07/29 02:33:58;;;;;;;;;;;;;;;14.13;80.90;98977.09;5035494;28;19928;-61
2021/07/29 02:36:23;;;;;;;;;;;;;;;14.11;80.92;98973.84;5035000;28;20405;-61
2021/07/29 02:38:48;;;;;;;;;;;;;;;14.12;81.32;98964.66;5035509;28;19921;-61
2021/07/29 02:41:14;;;;;;;;;;;;;;;14.08;81.22;98979.75;5034945;28;19940;-61
2021/07/29 02:43:39;;;;;;;;;;;;;;;14.00;81.57;98979.25;5035351;28;19928;-61
2021/07/29 02:46:04;;;;;;;;;;;;;;;13.99;81.71;98972.22;5029481;28;19921;-61
2021/07/29 02:48:30;;;;;;;;;;;;;;;13.94;81.71;98969.53;5015300;28;19924;-61
2021/07/29 02:50:55;;;;;;;;;;;;;;;13.91;82.27;98983.56;5022219;28;19979;-62
2021/07/29 02:53:21;;;;;;;;;;;;;;;13.89;82.67;98982.22;5035315;28;19924;-61
2021/07/29 02:55:46;;;;;;;;;;;;;;;13.80;82.79;98987.31;5034784;28;19925;-61
2021/07/29 02:58:11;;;;;;;;;;;;;;;13.80;83.06;98990.00;5035138;28;19917;-61
2021/07/29 03:00:37;;;;;;;;;;;;;;;13.72;82.96;98988.66;5034365;28;19917;-61
2021/07/29 03:03:02;;;;;;;;;;;;;;;13.74;83.14;98991.09;5034598;28;19921;-61
2021/07/29 03:05:27;;;;;;;;;;;;;;;13.73;83.23;99005.66;5034476;28;19961;-60
2021/07/29 03:07:52;;;;;;;;;;;;;;;13.77;83.40;99004.03;5034671;28;20278;-60
2021/07/29 03:10:18;;;;;;;;;;;;;;;13.78;83.18;99001.06;5034539;28;20299;-60
2021/07/29 03:12:43;;;;;;;;;;;;;;;13.84;82.98;98991.09;5034737;28;19971;-61
2021/07/29 03:15:08;;;;;;;;;;;;;;;13.85;83.24;99008.88;5034369;28;19987;-60
2021/07/29 03:17:34;;;;;;;;;;;;;;;13.83;83.53;99005.66;5034548;28;19917;-61
2021/07/29 03:19:59;;;;;;;;;;;;;;;13.88;83.38;99005.66;5034540;28;20012;-60
2021/07/29 03:22:24;;;;;;;;;;;;;;;13.88;83.46;99004.81;5034111;28;19921;-60
2021/07/29 03:24:49;;;;;;;;;;;;;;;13.85;83.65;99016.94;5033117;28;20425;-60
2021/07/29 03:27:15;;;;;;;;;;;;;;;13.89;83.40;99020.72;5034004;28;20007;-60
2021/07/29 03:29:40;;;;;;;;;;;;;;;13.91;83.29;99012.41;5033231;28;20326;-60
2021/07/29 03:32:05;;;;;;;;;;;;;;;13.94;83.28;99006.47;5032690;28;19968;-60
2021/07/29 03:34:31;;;;;;;;;;;;;;;14.01;82.92;99009.69;5034214;28;19921;-59
2021/07/29 03:36:56;;;;;;;;;;;;;;;14.08;82.70;99010.22;5032824;28;19963;-60
2021/07/29 03:39:21;;;;;;;;;;;;;;;14.21;82.08;99019.66;5034523;28;19979;-60
2021/07/29 03:41:46;;;;;;;;;;;;;;;14.19;82.10;99024.50;5033831;28;19921;-60
2021/07/29 03:44:12;;;;;;;;;;;;;;;14.19;81.71;99019.09;5034360;28;20263;-60
2021/07/29 03:46:37;;;;;;;;;;;;;;;14.26;81.83;99030.44;5033843;28;19924;-60
2021/07/29 03:49:03;;;;;;;;;;;;;;;14.24;81.52;99019.09;5034038;28;19998;-60
2021/07/29 03:51:29;;;;;;;;;;;;;;;14.14;81.87;99014.53;5033698;28;19921;-60
2021/07/29 03:53:54;;;;;;;;;;;;;;;14.10;82.32;99026.13;5033972;28;19917;-60
2021/07/29 03:56:19;;;;;;;;;;;;;;;14.04;82.15;99022.63;5033768;28;19975;-60
2021/07/29 03:58:44;;;;;;;;;;;;;;;14.10;82.50;99031.50;5033871;28;19917;-62
2021/07/29 04:01:11;;;;;;;;;;;;;;;14.02;82.51;99030.16;5033586;28;19921;-60
2021/07/29 04:03:36;;;;;;;;;;;;;;;14.07;82.25;99032.06;5033117;28;19928;-59
2021/07/29 04:06:01;;;;;;;;;;;;;;;14.18;82.19;99031.78;5033134;28;19921;-63
2021/07/29 04:08:27;;;;;;;;;;;;;;;14.32;81.50;99032.03;5034076;28;19917;-60
2021/07/29 04:10:53;;;;;;;;;;;;;;;14.58;79.94;99046.31;5033367;28;20339;-60
2021/07/29 04:13:19;;;;;;;;;;;;;;;14.62;79.81;99046.56;4994331;28;20000;-61
2021/07/29 04:15:44;;;;;;;;;;;;;;;14.39;81.19;99050.63;4999772;28;20395;-61
2021/07/29 04:18:09;;;;;;;;;;;;;;;14.22;81.67;99042.81;5012575;28;19921;-61
2021/07/29 04:20:34;;;;;;;;;;;;;;;14.37;80.66;99040.09;5013328;28;20419;-61
2021/07/29 04:22:59;;;;;;;;;;;;;;;14.41;80.94;99043.88;5013750;28;19922;-61
2021/07/29 04:25:25;;;;;;;;;;;;;;;14.30;81.67;99042.25;5013549;28;19928;-61
2021/07/29 04:27:50;;;;;;;;;;;;;;;14.29;81.62;99042.56;5013719;28;19917;-61
2021/07/29 04:30:16;;;;;;;;;;;;;;;14.35;81.23;99047.69;5013299;28;20422;-61
2021/07/29 04:32:41;;;;;;;;;;;;;;;14.40;81.73;99044.16;5013565;28;19918;-61
2021/07/29 04:35:06;;;;;;;;;;;;;;;15.52;77.00;99041.09;5013086;28;20393;-61
2021/07/29 04:37:32;;;;;;;;;;;;;;;16.57;71.53;99038.91;5012550;28;19959;-61
2021/07/29 04:39:57;;;;;;;;;;;;;;;16.94;70.96;99037.44;5012251;28;19917;-61
2021/07/29 04:42:22;;;;;;;;;;;;;;;16.60;71.95;99041.03;5013037;28;19921;-61
2021/07/29 04:44:47;;;;;;;;;;;;;;;16.39;72.31;99042.31;5013452;28;19921;-61
2021/07/29 04:47:16;;;;;;;;;;;;;;;16.12;73.65;99043.63;5044734;28;19922;-61
2021/07/29 04:49:41;;;;;;;;;;;;;;;15.56;75.94;99041.31;5013389;28;20367;-61
2021/07/29 04:52:06;;;;;;;;;;;;;;;17.13;71.00;99051.03;4996014;28;19953;-61
2021/07/29 04:54:32;;;;;;;;;;;;;;;17.84;67.07;99056.59;5003338;28;19964;-61
2021/07/29 04:56:57;;;;;;;;;;;;;;;16.40;72.35;99043.97;5012653;28;19926;-61
2021/07/29 04:59:22;;;;;;;;;;;;;;;15.74;75.41;99048.78;5013389;28;19918;-61
2021/07/29 05:01:49;;;;;;;;;;;;;;;15.50;76.22;99051.34;5011583;28;19926;-61
2021/07/29 05:04:14;;;;;;;;;;;;;;;15.34;77.11;99057.13;5012985;28;20352;-61
2021/07/29 05:06:40;;;;;;;;;;;;;;;15.37;77.40;99059.25;5012797;28;19964;-61
2021/07/29 05:09:05;;;;;;;;;;;;;;;15.45;77.12;99061.38;5013127;28;20331;-61
2021/07/29 05:11:30;;;;;;;;;;;;;;;15.49;76.79;99062.44;5012994;28;19921;-61
2021/07/29 05:13:56;;;;;;;;;;;;;;;15.40;76.99;99066.78;5013777;28;19965;-61
2021/07/29 05:16:21;;;;;;;;;;;;;;;15.50;76.85;99066.72;5026681;28;19991;-62
2021/07/29 05:18:46;;;;;;;;;;;;;;;15.33;77.14;99064.41;5036961;28;19964;-61
2021/07/29 05:21:11;;;;;;;;;;;;;;;15.56;76.66;99068.34;5037064;28;19917;-62
2021/07/29 05:23:37;;;;;;;;;;;;;;;15.88;76.05;99078.72;5036330;28;19924;-62
2021/07/29 05:26:05;;;;;;;;;;;;;;;16.03;75.60;99071.59;5035966;28;19928;-62
2021/07/29 05:28:30;;;;;;;;;;;;;;;16.15;75.18;99070.13;5036929;28;20031;-62
2021/07/29 05:30:55;;;;;;;;;;;;;;;16.38;74.59;99073.97;5036663;28;20024;-61
2021/07/29 05:33:20;;;;;;;;;;;;;;;16.12;75.81;99076.06;5037237;28;20317;-61
2021/07/29 05:35:46;;;;;;;;;;;;;;;16.07;76.00;99067.22;5036228;28;19928;-61
2021/07/29 05:38:11;;;;;;;;;;;;;;;16.07;76.09;99068.00;5035417;28;19948;-61
2021/07/29 05:40:36;;;;;;;;;;;;;;;16.11;75.99;99063.66;5036220;28;19943;-62
2021/07/29 05:43:02;;;;;;;;;;;;;;;16.03;76.18;99066.19;5035451;28;19924;-61
2021/07/29 05:45:32;;;;;;;;;;;;;;;15.89;76.50;99063.28;5036053;28;19922;-62
2021/07/29 05:47:57;;;;;;;;;;;;;;;15.74;77.11;99072.31;5036955;28;19923;-62
2021/07/29 05:50:23;;;;;;;;;;;;;;;15.69;77.49;99073.13;5036309;28;20023;-62
2021/07/29 05:52:48;;;;;;;;;;;;;;;15.83;77.09;99077.94;5036608;28;19920;-62
2021/07/29 05:55:13;;;;;;;;;;;;;;;16.01;76.21;99068.34;5036284;28;19917;-62
2021/07/29 05:57:39;;;;;;;;;;;;;;;16.04;76.45;99067.78;5036419;28;20399;-62
2021/07/29 06:00:04;;;;;;;;;;;;;;;15.92;76.92;99068.13;5036157;28;19913;-61
2021/07/29 06:02:29;;;;;;;;;;;;;;;16.07;76.25;99076.13;5036057;28;19921;-62
2021/07/29 06:04:55;;;;;;;;;;;;;;;16.24;75.62;99077.63;5036556;28;19917;-62
2021/07/29 06:07:21;;;;;;;;;;;;;;;16.89;73.32;99078.09;5035925;28;19928;-62
2021/07/29 06:09:46;;;;;;;;;;;;;;;17.04;72.49;99091.47;5034908;28;20321;-62
2021/07/29 06:12:11;;;;;;;;;;;;;;;16.66;73.04;99084.28;5025130;28;19921;-62
2021/07/29 06:14:37;;;;;;;;;;;;;;;16.63;73.52;99085.66;5015122;28;19922;-62
2021/07/29 06:17:02;;;;;;;;;;;;;;;16.68;73.55;99076.69;5031403;28;19980;-60
2021/07/29 06:19:34;;;;;;;;;;;;;;;16.60;73.30;99081.63;5067981;28;19917;-61
2021/07/29 06:21:59;;;;;;;;;;;;;;;16.35;74.22;99092.69;5035832;28;20489;-62
2021/07/29 06:24:25;;;;;;;;;;;;;;;16.39;74.35;99085.59;5035995;28;19939;-61
2021/07/29 06:26:51;;;;;;;;;;;;;;;16.31;74.41;99089.72;5034251;28;20012;-62
2021/07/29 06:29:16;;;;;;;;;;;;;;;16.29;74.76;99081.09;5035811;28;19936;-61
2021/07/29 06:31:41;;;;;;;;;;;;;;;16.32;74.57;99085.13;5035235;28;19948;-61
2021/07/29 06:34:07;;;;;;;;;;;;;;;16.34;75.15;99091.06;5035984;28;19918;-61
2021/07/29 06:36:32;;;;;;;;;;;;;;;16.23;74.63;99081.44;5035250;28;20291;-61
2021/07/29 06:38:59;;;;;;;;;;;;;;;16.34;74.57;99077.53;5035848;28;19917;-62
2021/07/29 06:41:24;;;;;;;;;;;;;;;16.45;73.56;99084.47;5035221;28;19921;-62
2021/07/29 06:43:49;;;;;;;;;;;;;;;16.76;72.48;99092.28;5035584;28;20325;-62
2021/07/29 06:46:15;;;;;;;;;;;;;;;16.36;73.51;99102.41;5033996;28;19921;-61
2021/07/29 06:48:40;;;;;;;;;;;;;;;16.29;74.88;99100.00;5035245;28;19963;-61
2021/07/29 06:51:06;;;;;;;;;;;;;;;16.19;76.23;99105.50;5035184;28;19921;-61
2021/07/29 06:53:31;;;;;;;;;;;;;;;16.03;75.60;99102.13;5035460;28;20294;-62
2021/07/29 06:55:58;;;;;;;;;;;;;;;16.37;74.90;99112.13;5066645;28;19927;-61
2021/07/29 06:58:23;;;;;;;;;;;;;;;16.71;72.91;99100.47;5035241;28;19971;-61
2021/07/29 07:00:48;;;;;;;;;;;;;;;18.29;67.32;99117.44;5034759;28;19925;-61
2021/07/29 07:03:13;;;;;;;;;;;;;;;21.52;57.79;99115.72;5034564;28;20012;-61
2021/07/29 07:05:45;;;;;;;;;;;;;;;21.20;56.93;99114.16;5034933;28;19925;-61
2021/07/29 07:08:10;;;;;;;;;;;;;;;23.33;50.06;99115.00;5033974;28;20398;-61
2021/07/29 07:10:35;;;;;;;;;;;;;;;24.89;46.10;99115.69;5034868;28;19921;-59
2021/07/29 07:13:00;;;;;;;;;;;;;;;23.99;47.19;99119.88;5034850;28;20346;-61
2021/07/29 07:15:26;;;;;;;;;;;;;;;25.11;44.77;99109.75;5034362;28;19994;-59
2021/07/29 07:17:51;;;;;;;;;;;;;;;24.14;46.24;99116.56;5033438;28;19917;-60
2021/07/29 07:20:16;;;;;;;;;;;;;;;24.81;44.23;99100.94;5034436;28;19981;-60
2021/07/29 07:22:42;;;;;;;;;;;;;;;26.38;41.27;99117.88;5034745;28;20267;-60
2021/07/29 07:25:07;;;;;;;;;;;;;;;23.87;44.75;99113.22;5034603;28;20271;-61
2021/07/29 07:27:32;;;;;;;;;;;;;;;25.40;41.81;99121.66;5034569;28;19924;-61
2021/07/29 07:29:57;;;;;;;;;;;;;;;26.59;40.50;99121.25;5034548;28;20352;-61
2021/07/29 07:32:23;;;;;;;;;;;;;;;23.69;46.64;99117.19;5034122;28;20008;-61
2021/07/29 07:34:48;;;;;;;;;;;;;;;23.06;47.64;99116.25;5034380;28;19917;-61
2021/07/29 07:37:17;;;;;;;;;;;;;;;24.85;43.10;99121.03;5033573;28;19928;-60
2021/07/29 07:39:43;;;;;;;;;;;;;;;25.05;41.52;99116.59;5032856;28;20088;-64
2021/07/29 07:42:08;;;;;;;;;;;;;;;24.01;44.27;99112.97;5034150;28;19921;-61
2021/07/29 07:44:33;;;;;;;;;;;;;;;22.18;47.53;99115.59;5034229;28;19970;-60
2021/07/29 07:46:59;;;;;;;;;;;;;;;24.35;43.29;99115.72;5033185;28;19944;-60
2021/07/29 07:49:24;;;;;;;;;;;;;;;24.58;43.53;99114.22;5034185;28;20008;-60
2021/07/29 07:51:49;;;;;;;;;;;;;;;26.34;39.65;99125.25;5033748;28;20418;-61
2021/07/29 07:54:14;;;;;;;;;;;;;;;26.89;37.95;99127.13;5033906;28;20047;-61
2021/07/29 07:56:41;;;;;;;;;;;;;;;21.88;49.27;99122.81;5032549;28;19921;-60
2021/07/29 07:59:06;;;;;;;;;;;;;;;23.39;45.86;99130.91;5033906;28;19914;-60
2021/07/29 08:01:31;;;;;;;;;;;;;;;23.47;45.92;99115.56;5033808;28;19928;-61
2021/07/29 08:03:57;;;;;;;;;;;;;;;23.22;45.61;99125.50;5033843;28;20364;-61
2021/07/29 08:06:23;;;;;;;;;;;;;;;22.75;46.50;99120.81;5033659;28;19925;-61
2021/07/29 08:08:48;;;;;;;;;;;;;;;24.49;42.77;99117.06;5033853;28;19917;-61
2021/07/29 08:11:13;;;;;;;;;;;;;;;22.83;45.90;99119.19;5033305;28;19943;-61
2021/07/29 08:13:39;;;;;;;;;;;;;;;23.00;45.94;99113.69;5034124;28;19929;-60
2021/07/29 08:16:05;;;;;;;;;;;;;;;21.61;48.91;99116.53;5033292;28;19921;-60
2021/07/29 08:18:31;;;;;;;;;;;;;;;21.32;50.52;99117.88;5033923;28;19917;-61
2021/07/29 08:20:56;;;;;;;;;;;;;;;21.23;50.95;99114.31;5033674;28;20291;-60
2021/07/29 08:23:21;;;;;;;;;;;;;;;20.64;51.38;99121.88;5033617;28;19924;-61
2021/07/29 08:25:46;;;;;;;;;;;;;;;20.36;51.65;99127.44;5031821;28;19957;-61
2021/07/29 08:28:13;;;;;;;;;;;;;;;19.82;52.37;99123.84;5033517;28;19917;-60
2021/07/29 08:30:38;;;;;;;;;;;;;;;19.77;53.63;99123.94;5032995;28;19963;-60
2021/07/29 08:33:09;;;;;;;;;;;;;;;19.46;55.27;99129.19;5033289;28;19917;-60
2021/07/29 08:35:36;;;;;;;;;;;;;;;19.51;54.90;99121.72;5033076;28;19960;-60
2021/07/29 08:38:01;;;;;;;;;;;;;;;19.91;52.41;99121.19;5033301;28;19928;-60
2021/07/29 08:40:26;;;;;;;;;;;;;;;19.86;52.53;99132.97;5032931;28;19921;-61
2021/07/29 08:42:51;;;;;;;;;;;;;;;23.13;44.96;99130.22;5033383;28;19923;-61
2021/07/29 08:45:17;;;;;;;;;;;;;;;21.50;47.93;99120.69;5032754;28;19921;-60
2021/07/29 08:47:42;;;;;;;;;;;;;;;20.61;50.20;99122.53;5031848;28;20000;-60
2021/07/29 08:50:07;;;;;;;;;;;;;;;20.18;51.18;99133.91;5032720;28;19917;-60
2021/07/29 08:52:33;;;;;;;;;;;;;;;19.53;53.17;99124.97;5033188;28;20008;-61
2021/07/29 08:54:58;;;;;;;;;;;;;;;20.22;51.06;99129.44;5033168;28;20364;-60
2021/07/29 08:57:28;;;;;;;;;;;;;;;19.61;53.34;99126.94;5031468;28;19921;-61
2021/07/29 08:59:53;;;;;;;;;;;;;;;19.96;52.48;99131.94;5032696;28;19917;-61
2021/07/29 09:02:22;;;;;;;;;;;;;;;21.17;48.27;99120.22;5032171;28;19925;-61
2021/07/29 09:05:06;;;;;;;;;;;;;;;20.55;49.27;99137.41;5033181;28;20292;-60
2021/07/29 09:07:32;;;;;;;;;;;;;;;21.11;47.42;99139.44;5012955;28;19922;-61
2021/07/29 09:09:58;;;;;;;;;;;;;;;21.36;47.39;99139.84;5011955;28;19924;-60
2021/07/29 09:12:24;;;;;;;;;;;;;;;20.84;48.70;99137.72;5032115;28;19921;-61
2021/07/29 09:14:50;;;;;;;;;;;;;;;21.06;48.93;99145.03;5032894;28;19974;-60
2021/07/29 09:17:15;;;;;;;;;;;;;;;21.65;47.19;99139.31;5032636;28;19925;-60
2021/07/29 09:19:41;;;;;;;;;;;;;;;21.50;48.23;99134.31;5032809;28;19921;-60
2021/07/29 09:22:19;;;;;;;;;;;;;;;22.99;44.00;99141.38;5032505;28;19925;-60
2021/07/29 09:24:57;;;;;;;;;;;;;;;24.08;41.56;99145.25;5032793;28;19928;-61
2021/07/29 09:27:28;;;;;;;;;;;;;;;24.19;40.47;99145.66;5032324;28;19921;-60
2021/07/29 09:29:53;;;;;;;;;;;;;;;25.52;38.79;99140.84;5032781;28;19918;-60
2021/07/29 09:32:21;;;;;;;;;;;;;;;25.17;37.56;99152.28;5031090;28;19921;-61
2021/07/29 09:34:47;;;;;;;;;;;;;;;22.09;43.77;99145.63;5032850;28;20300;-61
2021/07/29 09:37:13;;;;;;;;;;;;;;;22.98;43.42;99148.75;5032361;28;19931;-60
2021/07/29 09:39:38;;;;;;;;;;;;;;;22.97;42.73;99149.06;5032903;28;20333;-61
2021/07/29 09:42:19;;;;;;;;;;;;;;;22.49;44.44;99156.41;5032411;28;20398;-61
2021/07/29 09:44:44;;;;;;;;;;;;;;;22.17;44.63;99149.47;5033189;28;19921;-61
2021/07/29 09:47:10;;;;;;;;;;;;;;;21.57;45.22;99148.28;5032207;28;20268;-61
2021/07/29 09:49:35;;;;;;;;;;;;;;;21.31;45.50;99148.16;5032643;28;19917;-60
2021/07/29 09:52:00;;;;;;;;;;;;;;;21.22;45.81;99150.88;5032428;28;19925;-60
2021/07/29 09:54:26;;;;;;;;;;;;;;;20.95;46.56;99151.06;5032726;28;19913;-61
2021/07/29 09:56:51;;;;;;;;;;;;;;;20.28;47.66;99149.19;5030946;28;20252;-60
2021/07/29 09:59:16;;;;;;;;;;;;;;;20.53;47.97;99156.72;5032461;28;19921;-60
2021/07/29 10:01:41;;;;;;;;;;;;;;;20.77;47.86;99145.53;5033912;28;19921;-60
2021/07/29 10:04:07;;;;;;;;;;;;;;;21.41;44.93;99149.84;5035882;28;19927;-60
2021/07/29 10:06:32;;;;;;;;;;;;;;;22.05;44.53;99150.13;5035839;28;19925;-61
2021/07/29 10:08:58;;;;;;;;;;;;;;;22.41;42.28;99157.19;5036188;28;19921;-60
2021/07/29 10:11:24;;;;;;;;;;;;;;;22.72;41.68;99143.34;5034546;28;20360;-60
2021/07/29 10:13:51;;;;;;;;;;;;;;;21.95;43.11;99150.44;5035968;28;19924;-60
2021/07/29 10:16:17;;;;;;;;;;;;;;;23.15;42.75;99155.28;5034361;28;20096;-61
2021/07/29 10:18:51;;;;;;;;;;;;;;;22.18;42.32;99151.88;5035894;28;20071;-60
2021/07/29 10:21:21;;;;;;;;;;;;;;;23.46;40.09;99147.59;5035492;28;19975;-61
2021/07/29 10:23:53;;;;;;;;;;;;;;;23.97;37.97;99155.03;5068047;28;19940;-61
2021/07/29 10:26:18;;;;;;;;;;;;;;;24.91;37.29;99159.97;5035308;28;19967;-61
2021/07/29 10:28:44;;;;;;;;;;;;;;;23.55;40.39;99150.25;5035850;28;19921;-61
2021/07/29 10:31:09;;;;;;;;;;;;;;;23.38;42.45;99151.16;5035343;28;19925;-61
2021/07/29 10:33:35;;;;;;;;;;;;;;;22.65;42.15;99155.88;5035887;28;19921;-61
2021/07/29 10:36:00;;;;;;;;;;;;;;;22.71;41.76;99160.03;5035556;28;19925;-61
2021/07/29 10:38:38;;;;;;;;;;;;;;;21.67;43.86;99156.16;5034654;28;19921;-61
2021/07/29 10:41:05;;;;;;;;;;;;;;;21.94;43.80;99170.63;5035269;28;20443;-61
2021/07/29 10:43:30;;;;;;;;;;;;;;;21.69;44.05;99156.66;5035588;28;20302;-60
2021/07/29 10:45:58;;;;;;;;;;;;;;;21.57;44.49;99172.84;5035099;28;19932;-61
2021/07/29 10:48:48;;;;;;;;;;;;;;;21.70;44.19;99166.44;5035601;28;19923;-61
2021/07/29 10:51:13;;;;;;;;;;;;;;;21.96;42.84;99161.00;5035198;28;19975;-61
2021/07/29 10:53:42;;;;;;;;;;;;;;;22.20;41.83;99167.19;5035531;28;20260;-60
2021/07/29 10:56:07;;;;;;;;;;;;;;;22.22;41.39;99160.28;5034901;28;19921;-60
2021/07/29 10:58:40;;;;;;;;;;;;;;;22.23;42.27;99161.06;5035187;28;19913;-60
2021/07/29 11:01:05;;;;;;;;;;;;;;;22.44;41.23;99162.03;5035122;28;19921;-60
2021/07/29 11:03:30;;;;;;;;;;;;;;;21.78;42.50;99166.78;5035110;28;19921;-61
2021/07/29 11:06:05;;;;;;;;;;;;;;;22.16;42.12;99162.31;5035116;28;19928;-61
2021/07/29 11:08:30;;;;;;;;;;;;;;;22.45;40.35;99173.75;5034582;28;19921;-60
2021/07/29 11:10:56;;;;;;;;;;;;;;;23.19;40.49;99162.50;5033254;28;20000;-61
2021/07/29 11:13:22;;;;;;;;;;;;;;;22.90;41.47;99165.16;5035380;28;19917;-60
2021/07/29 11:15:47;;;;;;;;;;;;;;;22.97;40.35;99174.47;5033520;28;19928;-61
2021/07/29 11:18:15;;;;;;;;;;;;;;;22.83;39.99;99160.19;5034054;28;20004;-61
2021/07/29 11:20:40;;;;;;;;;;;;;;;23.27;39.45;99163.59;5033488;28;19932;-61
2021/07/29 11:23:06;;;;;;;;;;;;;;;22.79;39.57;99161.97;5035071;28;19921;-61
2021/07/29 11:25:33;;;;;;;;;;;;;;;22.51;41.48;99159.59;5034490;28;19921;-61
2021/07/29 11:28:14;;;;;;;;;;;;;;;22.60;41.13;99167.78;5034792;28;20008;-61
2021/07/29 11:30:42;;;;;;;;;;;;;;;22.00;41.57;99161.19;5034514;28;19943;-61
2021/07/29 11:33:17;;;;;;;;;;;;;;;22.54;40.42;99178.09;5034935;28;19995;-60
2021/07/29 11:35:43;;;;;;;;;;;;;;;23.12;38.61;99170.41;5034219;28;19920;-60
2021/07/29 11:38:08;;;;;;;;;;;;;;;22.89;38.74;99169.00;5033319;28;20331;-60
2021/07/29 11:40:33;;;;;;;;;;;;;;;23.27;37.44;99168.28;5032768;28;19944;-61
2021/07/29 11:42:58;;;;;;;;;;;;;;;22.77;38.72;99164.22;5033417;28;19924;-61
2021/07/29 11:45:25;;;;;;;;;;;;;;;23.34;38.90;99158.44;5033980;28;19923;-61
2021/07/29 11:47:50;;;;;;;;;;;;;;;23.11;37.94;99157.06;5033045;28;19960;-61
2021/07/29 11:50:15;;;;;;;;;;;;;;;23.48;37.52;99164.44;5033903;28;19917;-60
2021/07/29 11:52:48;;;;;;;;;;;;;;;22.99;38.73;99163.22;5034245;28;19917;-61
2021/07/29 11:55:14;;;;;;;;;;;;;;;22.82;39.90;99172.25;5033725;28;19917;-60
2021/07/29 11:57:40;;;;;;;;;;;;;;;22.78;38.03;99163.09;5034068;28;20067;-60
2021/07/29 12:00:05;;;;;;;;;;;;;;;22.86;38.96;99156.78;5033739;28;19917;-60
2021/07/29 12:02:31;;;;;;;;;;;;;;;22.80;39.55;99163.56;5033789;28;19922;-61
2021/07/29 12:04:56;;;;;;;;;;;;;;;22.75;40.84;99161.81;5032723;28;19917;-61
2021/07/29 12:07:21;;;;;;;;;;;;;;;23.10;40.41;99160.94;5033398;28;19921;-60
2021/07/29 12:09:46;;;;;;;;;;;;;;;22.66;40.09;99168.41;5033901;28;19918;-61
2021/07/29 12:12:15;;;;;;;;;;;;;;;22.23;39.43;99161.06;5032608;28;20217;-60
2021/07/29 12:14:43;;;;;;;;;;;;;;;23.33;38.16;99165.00;5033790;28;19932;-61
2021/07/29 12:17:17;;;;;;;;;;;;;;;23.10;37.78;99169.13;5033169;28;19980;-60
2021/07/29 12:19:53;;;;;;;;;;;;;;;22.81;38.75;99167.88;5033554;28;19917;-60
2021/07/29 12:22:25;;;;;;;;;;;;;;;22.69;39.00;99170.47;5033195;28;20019;-60
2021/07/29 12:24:50;;;;;;;;;;;;;;;22.39;40.67;99165.72;5033148;28;19921;-60
2021/07/29 12:27:18;;;;;;;;;;;;;;;22.45;40.16;99181.94;5033065;28;19967;-60
2021/07/29 12:29:44;;;;;;;;;;;;;;;21.98;39.09;99174.34;5033460;28;19917;-60
2021/07/29 12:32:25;;;;;;;;;;;;;;;21.64;40.65;99184.09;5033009;28;19982;-60
2021/07/29 12:34:51;;;;;;;;;;;;;;;22.73;38.50;99185.09;5033655;28;19967;-60
2021/07/29 12:37:26;;;;;;;;;;;;;;;22.97;38.31;99170.94;5032795;28;20317;-60
2021/07/29 12:39:55;;;;;;;;;;;;;;;22.86;39.30;99164.19;5048708;28;19917;-60
2021/07/29 12:42:26;;;;;;;;;;;;;;;22.73;42.34;99171.44;5031590;28;19940;-60
2021/07/29 12:45:01;;;;;;;;;;;;;;;22.06;41.16;99168.09;5033555;28;19917;-60